Time;durP1;ratioP1;P1;durP2;ratioP2;P2;SDS_P1;SDS_P2;PMS_P1;PMS_P2;Temp;Humidity;BMP_temperature;BMP_pressure;BME280_temperature;BME280_humidity;BME280_pressure;Samples;Min_cycle;Max_cycle;Signal;HPM_P1;HPM_P2
2022/03/20 00:01:03;;;;;;;5.65;4.53;;;9.70;99.90;;;9.59;52.21;103201.53;5113966;28;20047;-67
2022/03/20 00:03:32;;;;;;;11.10;5.18;;;9.70;99.90;;;9.78;52.43;103263.88;5095688;28;20047;-67
2022/03/20 00:06:01;;;;;;;7.53;4.40;;;9.60;99.90;;;9.67;52.67;103258.22;5113517;28;20100;-67
2022/03/20 00:08:30;;;;;;;7.03;4.68;;;9.50;99.90;;;9.56;52.93;103241.03;5113793;28;20064;-67
2022/03/20 00:11:01;;;;;;;6.93;5.10;;;9.50;99.90;;;9.62;53.11;103250.97;5113422;28;20032;-67
2022/03/20 00:13:31;;;;;;;6.35;4.78;;;9.50;99.90;;;9.46;53.57;103215.13;5113765;28;20055;-67
2022/03/20 00:15:59;;;;;;;7.63;4.85;;;9.50;99.90;;;9.74;53.50;103256.69;5113409;28;20043;-66
2022/03/20 00:18:28;;;;;;;6.85;4.88;;;9.50;99.90;;;9.69;53.20;103252.97;5113704;28;20080;-67
2022/03/20 00:21:00;;;;;;;7.70;4.80;;;9.50;99.90;;;9.03;53.72;103151.88;5113572;28;20586;-67
2022/03/20 00:23:30;;;;;;;6.20;5.20;;;9.40;99.90;;;9.62;54.05;103246.56;5113397;28;20090;-67
2022/03/20 00:26:00;;;;;;;8.00;4.80;;;9.50;99.90;;;9.59;53.85;103237.63;5113287;28;20074;-67
2022/03/20 00:28:29;;;;;;;6.38;5.13;;;9.50;99.90;;;9.56;54.20;103245.44;5113378;28;20497;-67
2022/03/20 00:30:59;;;;;;;7.38;5.25;;;9.40;99.90;;;9.56;54.50;103235.75;5116718;28;20044;-67
2022/03/20 00:33:28;;;;;;;6.15;5.45;;;9.40;99.90;;;9.55;54.33;103236.59;5117457;28;20078;-67
2022/03/20 00:35:56;;;;;;;6.07;4.75;;;9.40;99.90;;;9.48;54.30;103221.38;5117368;28;20446;-67
2022/03/20 00:38:26;;;;;;;8.48;5.13;;;9.30;99.90;;;9.31;54.94;103201.31;5117590;28;20548;-64
2022/03/20 00:40:54;;;;;;;10.82;5.18;;;9.30;99.90;;;9.42;55.19;103234.34;5117258;28;20404;-63
2022/03/20 00:43:24;;;;;;;6.20;4.68;;;9.30;99.90;;;9.43;55.40;103222.94;5117698;28;20526;-66
2022/03/20 00:45:53;;;;;;;8.07;5.10;;;9.30;99.90;;;9.50;55.15;103230.25;5099113;28;20044;-66
2022/03/20 00:48:23;;;;;;;;;;;9.30;99.90;;;9.54;54.90;103226.00;5117801;28;20634;-69
2022/03/20 00:50:54;;;;;;;7.38;4.93;;;9.40;99.90;;;9.48;55.19;103210.81;5117304;28;20437;-68
2022/03/20 00:53:22;;;;;;;5.78;5.15;;;9.40;99.90;;;9.49;55.60;103199.38;5117257;28;20443;-66
2022/03/20 00:55:50;;;;;;;7.65;5.30;;;9.40;99.90;;;9.48;56.25;103217.81;5116999;28;20074;-66
2022/03/20 00:58:20;;;;;;;9.27;5.68;;;9.30;99.90;;;9.41;56.52;103211.41;5117201;28;20041;-66
2022/03/20 01:00:51;;;;;;;10.83;6.00;;;9.20;99.90;;;9.39;56.50;103194.59;5117190;28;20075;-66
2022/03/20 01:03:20;;;;;;;10.02;6.35;;;9.20;99.90;;;9.23;56.94;103209.81;5116892;28;20074;-65
2022/03/20 01:05:48;;;;;;;6.45;5.60;;;9.10;99.90;;;9.24;56.85;103204.59;5098620;28;20093;-66
2022/03/20 01:08:18;;;;;;;11.52;6.10;;;9.10;99.90;;;9.26;56.90;103202.00;5095134;28;20139;-66
2022/03/20 01:10:46;;;;;;;9.23;5.97;;;9.00;99.90;;;9.14;57.59;103191.00;5096591;28;20047;-66
2022/03/20 01:13:15;;;;;;;10.02;6.00;;;9.00;99.90;;;9.17;57.88;103186.72;5096478;28;20052;-65
2022/03/20 01:15:44;;;;;;;10.45;6.50;;;9.00;99.90;;;9.06;58.11;103186.28;5096481;28;20040;-66
2022/03/20 01:18:14;;;;;;;10.07;6.78;;;8.90;99.90;;;9.09;58.11;103188.16;5095235;28;20486;-66
2022/03/20 01:20:42;;;;;;;8.52;7.30;;;8.90;99.90;;;8.99;58.87;103164.88;5096277;28;20551;-66
2022/03/20 01:23:11;;;;;;;10.63;7.28;;;8.90;99.90;;;8.93;58.93;103165.53;5096319;28;20047;-65
2022/03/20 01:25:40;;;;;;;8.40;7.57;;;8.80;99.90;;;8.95;59.31;103169.13;5095971;28;20128;-65
2022/03/20 01:28:08;;;;;;;11.13;7.70;;;8.80;99.90;;;8.88;59.62;103153.00;5096027;28;20119;-65
2022/03/20 01:30:37;;;;;;;8.45;7.25;;;8.70;99.90;;;8.87;59.95;103157.38;5096374;28;20040;-64
2022/03/20 01:33:06;;;;;;;9.48;7.82;;;8.70;99.90;;;8.94;60.08;103159.41;5095842;28;20044;-66
2022/03/20 01:35:36;;;;;;;12.38;7.82;;;8.70;99.90;;;8.67;60.22;103113.47;5096218;28;20053;-65
2022/03/20 01:38:06;;;;;;;13.73;8.45;;;8.70;99.90;;;8.91;60.21;103137.28;5096097;28;20130;-65
2022/03/20 01:40:34;;;;;;;14.18;7.90;;;8.70;99.90;;;8.84;60.47;103138.81;5094752;28;20044;-65
2022/03/20 01:43:03;;;;;;;9.80;8.82;;;8.70;99.90;;;8.76;60.64;103124.41;5095244;28;20044;-65
2022/03/20 01:45:32;;;;;;;11.30;8.55;;;8.70;99.90;;;8.87;60.84;103127.44;5095812;28;20090;-65
2022/03/20 01:48:01;;;;;;;13.75;9.35;;;8.70;99.90;;;8.91;60.67;103137.28;5095657;28;20103;-65
2022/03/20 01:50:32;;;;;;;11.73;9.07;;;8.70;99.90;;;8.83;60.82;103118.50;5094749;28;20052;-67
2022/03/20 01:53:07;;;;;;;11.27;8.85;;;8.70;99.90;;;8.76;61.01;103123.50;5095967;28;20044;-65
2022/03/20 01:55:36;;;;;;;12.30;9.80;;;8.60;99.90;;;8.77;61.32;103127.91;5094666;28;20067;-66
2022/03/20 01:58:04;;;;;;;14.25;10.13;;;8.60;99.90;;;8.79;61.11;103113.03;5095538;28;20086;-64
2022/03/20 02:00:34;;;;;;;12.55;10.30;;;8.60;99.90;;;8.46;61.46;103075.69;5095625;28;20166;-64
2022/03/20 02:03:02;;;;;;;14.95;11.02;;;8.60;99.90;;;8.81;61.39;103114.91;5094224;28;20044;-65
2022/03/20 02:05:31;;;;;;;13.57;10.85;;;8.60;99.90;;;8.85;61.42;103113.28;5095205;28;20036;-66
2022/03/20 02:08:02;;;;;;;15.85;10.45;;;8.60;99.90;;;8.70;61.72;103102.16;5102699;28;20063;-66
2022/03/20 02:10:36;;;;;;;15.23;10.90;;;8.60;99.90;;;8.71;61.64;103107.47;5115611;28;20040;-67
2022/03/20 02:13:06;;;;;;;17.23;11.82;;;8.50;99.90;;;8.76;61.50;103097.09;5115629;28;20050;-65
2022/03/20 02:15:36;;;;;;;15.68;12.00;;;8.60;99.90;;;8.71;61.66;103093.41;5115779;28;20052;-64
2022/03/20 02:18:07;;;;;;;17.02;11.85;;;8.60;99.90;;;8.60;61.70;103089.44;5115480;28;20042;-64
2022/03/20 02:20:35;;;;;;;17.75;11.75;;;8.50;99.90;;;8.65;61.38;103082.63;5115476;28;20542;-64
2022/03/20 02:23:05;;;;;;;17.15;12.60;;;8.50;99.90;;;8.35;61.90;103055.94;5115361;28;20473;-65
2022/03/20 02:25:34;;;;;;;19.02;12.85;;;8.40;99.90;;;8.56;61.87;103076.97;5115567;28;20043;-65
2022/03/20 02:28:03;;;;;;;16.15;12.82;;;8.40;99.90;;;8.36;61.82;103041.00;5115471;28;20051;-65
2022/03/20 02:30:32;;;;;;;14.88;12.82;;;8.40;99.90;;;8.55;61.79;103072.53;5115405;28;20040;-66
2022/03/20 02:33:04;;;;;;;19.52;14.07;;;8.40;99.90;;;8.40;62.02;103064.03;5097085;28;20043;-65
2022/03/20 02:35:33;;;;;;;21.25;14.52;;;8.30;99.90;;;8.48;61.97;103067.88;5096831;28;20044;-68
2022/03/20 02:38:02;;;;;;;21.23;14.27;;;8.30;99.90;;;8.37;62.27;103048.97;5097054;28;20044;-64
2022/03/20 02:40:32;;;;;;;17.63;14.38;;;8.30;99.90;;;8.39;62.24;103065.75;5114754;28;20108;-66
2022/03/20 02:43:07;;;;;;;22.02;14.50;;;8.20;99.90;;;8.29;61.99;103047.75;5114938;28;20047;-64
2022/03/20 02:45:35;;;;;;;18.17;14.15;;;8.20;99.90;;;8.07;62.56;103035.41;5114968;28;20043;-65
2022/03/20 02:48:05;;;;;;;18.77;14.95;;;8.10;99.90;;;7.97;62.71;103042.91;5096811;28;20054;-65
2022/03/20 02:50:37;;;;;;;22.88;15.30;;;8.00;99.90;;;8.05;62.67;103028.31;5096752;28;20059;-65
2022/03/20 02:53:11;;;;;;;22.20;14.60;;;8.00;99.90;;;8.19;62.52;103046.47;5113909;28;20481;-64
2022/03/20 02:55:44;;;;;;;21.75;15.35;;;8.00;99.90;;;8.08;62.57;103034.59;5114882;28;20097;-64
2022/03/20 02:58:16;;;;;;;24.00;15.85;;;8.00;99.90;;;8.13;62.93;103024.22;5096503;28;20058;-65
2022/03/20 03:00:46;;;;;;;20.63;16.08;;;8.00;99.90;;;8.27;62.85;103036.25;5114849;28;20412;-64
2022/03/20 03:03:16;;;;;;;22.53;17.10;;;8.10;99.90;;;8.10;62.93;103043.47;5114502;28;20069;-64
2022/03/20 03:05:47;;;;;;;23.83;16.55;;;8.00;99.90;;;8.14;62.87;103023.41;5114552;28;20397;-65
2022/03/20 03:11:02;;;;;;;21.00;16.15;;;8.00;99.90;;;8.13;63.17;103016.31;5096464;28;20092;-66
2022/03/20 03:13:34;;;;;;;19.08;15.43;;;8.00;99.90;;;8.14;63.03;103021.69;5114344;28;20055;-65
2022/03/20 03:16:06;;;;;;;22.17;16.58;;;8.00;99.90;;;8.10;63.29;103027.66;5114601;28;20083;-68
2022/03/20 03:18:36;;;;;;;19.65;16.05;;;8.00;99.90;;;8.08;63.26;103013.53;5114605;28;20401;-66
2022/03/20 03:21:05;;;;;;;23.60;16.65;;;8.00;99.90;;;8.11;63.18;103036.44;5114494;28;20159;-65
2022/03/20 03:23:35;;;;;;;21.85;16.08;;;8.00;99.90;;;8.10;63.37;103027.66;5114058;28;20036;-69
2022/03/20 03:26:05;;;;;;;23.73;15.90;;;8.00;99.90;;;8.12;63.54;103023.34;5114032;28;20084;-64
2022/03/20 03:28:35;;;;;;;22.52;15.25;;;7.90;99.90;;;8.03;63.73;103025.59;5114101;28;20495;-65
2022/03/20 03:31:06;;;;;;;23.38;16.45;;;7.90;99.90;;;8.06;63.78;102998.47;5114040;28;20073;-64
2022/03/20 03:35:41;;;;;;;21.60;15.20;;;7.90;99.90;;;8.08;64.09;103013.53;5114283;28;20447;-65
2022/03/20 03:36:26;;;;;;;21.67;15.80;;;7.90;99.90;;;7.93;64.69;103012.91;5114042;28;20472;-65
2022/03/20 03:38:54;;;;;;;22.63;15.45;;;7.80;99.90;;;7.52;64.89;102956.72;5095893;28;20043;-65
2022/03/20 03:41:25;;;;;;;22.48;15.68;;;7.70;99.90;;;7.81;65.26;103004.50;5113822;28;20040;-65
2022/03/20 03:43:53;;;;;;;21.52;15.20;;;7.70;99.90;;;7.88;65.42;102998.63;5114068;28;20044;-64
2022/03/20 03:46:22;;;;;;;24.25;15.57;;;7.70;99.90;;;7.82;65.37;102992.22;5113741;28;20050;-67
2022/03/20 03:48:50;;;;;;;23.60;15.35;;;7.70;99.90;;;7.20;66.07;102877.31;5113688;28;20048;-64
2022/03/20 03:51:19;;;;;;;21.08;14.93;;;7.60;99.90;;;7.88;65.82;102988.09;5114000;28;20046;-65
2022/03/20 03:53:48;;;;;;;18.20;15.23;;;7.70;99.90;;;7.83;65.77;102978.19;5113591;28;20629;-65
2022/03/20 03:56:17;;;;;;;20.38;14.68;;;7.70;99.90;;;7.79;66.07;102986.81;5113598;28;20036;-66
2022/03/20 03:58:47;;;;;;;19.38;15.27;;;7.70;99.90;;;7.81;66.29;102975.50;5113641;28;20047;-64
2022/03/20 04:01:16;;;;;;;25.83;15.38;;;7.70;99.90;;;7.87;66.69;102966.97;5113678;28;20512;-65
2022/03/20 04:03:44;;;;;;;20.02;14.30;;;7.70;99.90;;;7.86;66.38;103033.66;5113876;28;20047;-65
2022/03/20 04:06:13;;;;;;;22.73;14.63;;;7.70;99.90;;;7.89;66.35;102954.75;5113444;28;20048;-64
2022/03/20 04:08:41;;;;;;;18.52;13.93;;;7.70;99.90;;;7.92;65.92;102952.22;5113652;28;20129;-64
2022/03/20 04:11:10;;;;;;;18.92;14.95;;;7.70;99.90;;;7.92;66.13;102953.13;5113701;28;20052;-66
2022/03/20 04:13:40;;;;;;;17.75;14.40;;;7.70;99.90;;;7.81;66.37;102929.81;5095481;28;20043;-66
2022/03/20 04:16:10;;;;;;;21.15;14.52;;;7.80;99.90;;;7.91;66.42;102934.63;5113671;28;20404;-64
2022/03/20 04:18:38;;;;;;;21.70;14.30;;;7.70;99.90;;;7.82;66.75;102916.72;5113769;28;20040;-64
2022/03/20 04:21:07;;;;;;;20.08;14.52;;;7.70;99.90;;;7.84;66.44;102930.84;5113882;28;20043;-65
2022/03/20 04:23:46;;;;;;;17.92;14.63;;;7.70;99.90;;;7.80;66.45;102934.19;5113447;28;20450;-65
2022/03/20 04:26:17;;;;;;;22.10;15.00;;;7.60;99.90;;;7.54;66.59;102883.94;5095588;28;20505;-67
2022/03/20 04:28:47;;;;;;;17.55;13.63;;;7.60;99.90;;;7.62;66.56;102890.41;5113314;28;20074;-65
2022/03/20 04:31:19;;;;;;;20.77;14.55;;;7.60;99.90;;;7.54;66.78;102881.31;5113301;28;20478;-65
2022/03/20 04:33:50;;;;;;;21.63;14.15;;;7.50;99.90;;;7.70;67.05;102908.34;5113635;28;20040;-65
2022/03/20 04:36:22;;;;;;;19.13;14.38;;;7.50;99.90;;;7.52;67.19;102901.41;5113363;28;20035;-66
2022/03/20 04:38:52;;;;;;;22.00;16.13;;;7.50;99.90;;;7.53;67.39;102906.75;5113319;28;20052;-67
2022/03/20 04:41:21;;;;;;;20.98;15.45;;;7.40;99.90;;;7.48;67.42;102916.19;5113844;28;20100;-69
2022/03/20 04:43:51;;;;;;;23.95;15.77;;;7.30;99.90;;;7.58;67.47;102913.09;5113226;28;20039;-64
2022/03/20 04:46:21;;;;;;;22.40;15.52;;;7.40;99.90;;;7.15;67.66;102856.91;5113160;28;20040;-65
2022/03/20 04:59:55;;;;;;;18.95;14.38;;;7.30;99.90;;;7.49;67.22;102874.97;5095122;28;20047;-64
2022/03/20 05:02:24;;;;;;;20.92;15.05;;;7.30;99.90;;;7.43;67.46;102880.00;5095028;28;20044;-65
2022/03/20 05:04:53;;;;;;;23.33;15.48;;;7.30;99.90;;;6.99;67.55;102820.25;5113074;28;20464;-65
2022/03/20 05:07:21;;;;;;;21.55;15.07;;;7.20;99.90;;;7.11;67.61;102845.34;5112912;28;20119;-65
2022/03/20 05:15:21;;;;;;;25.85;16.77;;;7.20;99.90;;;7.28;67.28;102869.72;5113253;28;20123;-64
2022/03/20 05:17:51;;;;;;;23.52;17.00;;;7.10;99.90;;;7.04;67.45;102852.94;5115472;28;20075;-65
2022/03/20 05:20:22;;;;;;;21.58;16.17;;;7.10;99.90;;;7.23;67.42;102858.13;5116766;28;20039;-64
2022/03/20 05:22:52;;;;;;;21.95;16.13;;;7.10;99.90;;;7.11;67.54;102853.25;5116816;28;20133;-64
2022/03/20 05:25:20;;;;;;;23.70;17.30;;;7.00;99.90;;;7.10;67.36;102850.56;5116592;28;20062;-64
2022/03/20 05:27:50;;;;;;;24.65;17.23;;;7.00;99.90;;;7.00;67.71;102840.47;5116624;28;20090;-64
2022/03/20 05:30:19;;;;;;;23.95;16.67;;;6.90;99.90;;;6.74;67.93;102793.78;5116848;28;20040;-64
2022/03/20 05:32:48;;;;;;;24.63;17.58;;;6.90;99.90;;;7.07;67.14;102838.16;5116414;28;20485;-64
2022/03/20 05:35:22;;;;;;;25.95;17.92;;;6.90;99.90;;;6.74;67.32;102765.75;5116754;28;20051;-65
2022/03/20 05:37:51;;;;;;;24.75;16.85;;;6.90;99.90;;;7.14;66.97;102821.78;5116308;28;20071;-65
2022/03/20 05:40:19;;;;;;;25.15;18.30;;;7.00;99.90;;;7.01;67.02;102794.91;5116335;28;20057;-65
2022/03/20 05:42:48;;;;;;;24.55;17.30;;;7.00;99.90;;;7.09;66.91;102810.19;5116278;28;20039;-65
2022/03/20 05:45:16;;;;;;;24.17;17.08;;;6.90;99.90;;;7.09;66.88;102802.28;5116399;28;20044;-65
2022/03/20 05:47:44;;;;;;;24.70;16.95;;;7.00;99.90;;;7.10;66.43;102803.19;5115927;28;20043;-64
2022/03/20 05:50:13;;;;;;;27.42;18.17;;;7.00;99.90;;;7.07;66.79;102796.06;5115981;28;20043;-65
2022/03/20 05:52:43;;;;;;;22.70;17.48;;;6.90;99.90;;;7.03;66.36;102788.88;5116323;28;20485;-65
2022/03/20 05:55:11;;;;;;;28.17;19.42;;;7.00;99.90;;;7.02;66.46;102807.25;5116543;28;20079;-66
2022/03/20 05:58:03;;;;;;;30.80;19.10;;;6.90;99.90;;;7.03;66.28;102809.94;5115977;28;20544;-65
2022/03/20 06:00:31;;;;;;;24.80;19.23;;;6.90;99.90;;;6.98;66.47;102808.84;5115837;28;20431;-67
2022/03/20 06:03:01;;;;;;;23.55;17.48;;;6.90;99.90;;;7.02;66.19;102784.47;5116045;28;20043;-64
2022/03/20 06:05:30;;;;;;;26.55;18.75;;;6.90;99.90;;;7.05;66.22;102807.34;5115699;28;20047;-64
2022/03/20 06:08:01;;;;;;;28.10;19.27;;;6.90;99.90;;;6.71;66.23;102736.72;5115362;28;20054;-64
2022/03/20 06:10:29;;;;;;;26.05;18.88;;;6.90;99.90;;;6.99;66.18;102791.31;5115992;28;20100;-64
2022/03/20 06:12:58;;;;;;;26.75;18.77;;;6.80;99.90;;;6.99;66.29;102781.69;5115568;28;20043;-66
2022/03/20 06:15:27;;;;;;;26.50;18.65;;;6.90;99.90;;;6.97;66.24;102779.84;5115328;28;20044;-64
2022/03/20 06:17:55;;;;;;;28.33;19.25;;;6.80;99.90;;;6.83;66.22;102773.13;5115462;28;20096;-64
2022/03/20 06:20:26;;;;;;;27.42;17.95;;;6.70;99.90;;;6.85;65.98;102782.00;5096871;28;20051;-65
2022/03/20 06:22:55;;;;;;;30.35;18.77;;;6.70;99.90;;;6.84;66.31;102769.66;5097364;28;20051;-65
2022/03/20 06:25:25;;;;;;;25.55;18.85;;;6.70;99.90;;;6.46;66.21;102712.88;5115315;28;20079;-64
2022/03/20 06:27:56;;;;;;;28.00;19.40;;;6.70;99.90;;;6.76;66.37;102765.81;5097121;28;20052;-64
2022/03/20 06:30:25;;;;;;;29.17;19.77;;;6.70;99.90;;;6.67;66.04;102760.19;5115234;28;20104;-64
2022/03/20 06:32:55;;;;;;;28.90;19.33;;;6.60;99.90;;;6.23;66.61;102719.75;5115166;28;20046;-64
2022/03/20 06:35:24;;;;;;;30.73;20.02;;;6.60;99.90;;;6.68;66.44;102773.38;5115214;28;20044;-65
2022/03/20 06:37:53;;;;;;;26.95;19.95;;;6.60;99.90;;;6.61;66.44;102775.69;5115658;28;20047;-65
2022/03/20 06:40:24;;;;;;;27.90;20.98;;;6.60;99.90;;;6.53;66.94;102782.34;5096945;28;20040;-65
2022/03/20 06:42:53;;;;;;;31.17;19.75;;;6.40;99.90;;;6.65;67.41;102786.41;5115292;28;20108;-65
2022/03/20 06:45:21;;;;;;;27.30;20.10;;;6.50;99.90;;;6.51;66.98;102778.75;5115122;28;20396;-65
2022/03/20 06:47:50;;;;;;;29.55;20.58;;;6.40;99.90;;;6.66;66.64;102779.44;5096820;28;20048;-65
2022/03/20 06:50:19;;;;;;;28.67;20.83;;;6.60;99.90;;;6.77;66.66;102783.41;5114820;28;20050;-64
2022/03/20 06:52:48;;;;;;;31.05;20.92;;;6.60;99.90;;;6.45;66.25;102720.66;5114676;28;20043;-65
2022/03/20 06:55:18;;;;;;;30.75;20.80;;;6.60;99.90;;;6.92;66.57;102776.13;5096899;28;20536;-65
2022/03/20 06:57:48;;;;;;;28.95;19.90;;;6.80;99.90;;;6.87;65.66;102735.59;5114793;28;20042;-65
2022/03/20 07:00:18;;;;;;;30.38;20.33;;;6.90;99.90;;;7.12;65.43;102775.22;5114885;28;20097;-65
2022/03/20 07:02:56;;;;;;;30.52;20.48;;;6.90;99.90;;;7.32;64.92;102773.38;5114617;28;20546;-66
2022/03/20 07:05:31;;;;;;;31.27;20.60;;;7.10;99.90;;;7.46;64.51;102765.16;5114845;28;20062;-64
2022/03/20 07:08:00;;;;;;;32.35;20.90;;;7.30;99.90;;;7.64;63.63;102768.50;5114234;28;20501;-65
2022/03/20 07:10:28;;;;;;;31.95;20.85;;;7.50;99.90;;;7.92;63.15;102763.41;5114586;28;20477;-64
2022/03/20 07:15:42;;;;;;;28.88;19.55;;;7.90;99.90;;;8.31;61.20;102760.44;5113538;28;20055;-64
2022/03/20 07:18:12;;;;;;;29.75;20.75;;;8.10;99.90;;;8.52;60.43;102758.53;5114284;28;20074;-64
2022/03/20 07:20:44;;;;;;;28.30;20.33;;;8.30;99.90;;;8.47;59.92;102784.78;5114195;28;20493;-64
2022/03/20 07:23:13;;;;;;;29.55;21.05;;;8.30;99.90;;;8.19;60.44;102758.22;5114076;28;20050;-64
2022/03/20 07:31:17;;;;;;;27.52;19.95;;;8.40;99.90;;;8.57;59.00;102714.78;5114316;28;20374;-65
2022/03/20 07:33:48;;;;;;;31.73;20.98;;;8.60;99.90;;;8.95;58.46;102738.91;5114479;28;20043;-65
2022/03/20 07:36:19;;;;;;;31.00;20.38;;;8.70;99.90;;;8.98;57.15;102732.84;5114175;28;20142;-64
2022/03/20 07:38:50;;;;;;;31.70;22.02;;;8.80;99.90;;;8.04;56.75;102631.19;5113732;28;20408;-64
2022/03/20 07:41:18;;;;;;;;;;;8.60;99.90;;;7.30;58.79;102632.06;5114267;28;20043;-65
2022/03/20 07:43:48;;;;;;;29.60;21.98;;;7.80;99.90;;;7.85;60.02;102716.63;5114245;28;19964;-65
2022/03/20 07:46:17;;;;;;;27.67;20.38;;;7.60;99.90;;;7.13;60.21;102562.13;5113764;28;20039;-65
2022/03/20 07:48:45;;;;;;;31.33;22.08;;;7.70;99.90;;;8.45;58.19;102732.81;5113721;28;20056;-64
2022/03/20 07:51:15;;;;;;;31.58;22.65;;;8.20;99.90;;;7.94;58.11;102666.88;5113682;28;20035;-65
2022/03/20 07:53:43;;;;;;;30.63;21.13;;;8.10;99.90;;;8.64;57.58;102719.41;5095666;28;20036;-65
2022/03/20 07:56:12;;;;;;;32.65;22.05;;;8.40;99.90;;;8.90;57.05;102729.06;5113596;28;20047;-65
2022/03/20 07:58:40;;;;;;;30.50;22.15;;;8.60;99.90;;;8.81;56.14;102691.81;5113832;28;20152;-65
2022/03/20 08:01:10;;;;;;;31.98;21.75;;;8.70;99.90;;;8.78;56.00;102667.97;5113807;28;20081;-64
2022/03/20 08:03:40;;;;;;;31.90;22.52;;;8.70;99.90;;;8.12;55.85;102551.56;5113485;28;20079;-65
2022/03/20 08:06:10;;;;;;;32.40;22.33;;;8.70;99.90;;;7.53;56.24;102530.22;5113440;28;20055;-65
2022/03/20 08:08:41;;;;;;;32.35;22.67;;;8.40;99.90;;;8.45;56.35;102674.81;5113480;28;20289;-65
2022/03/20 08:11:10;;;;;;;32.50;23.17;;;8.30;99.90;;;8.44;56.92;102675.66;5113646;28;20118;-64
2022/03/20 08:13:40;;;;;;;35.08;22.63;;;8.30;99.90;;;7.98;56.62;102626.63;5113474;28;20490;-65
2022/03/20 08:16:15;;;;;;;34.47;23.85;;;8.20;99.90;;;8.29;57.28;102675.13;5113816;28;20047;-65
2022/03/20 08:18:45;;;;;;;34.63;23.15;;;8.10;99.90;;;8.35;57.25;102673.59;5113774;28;20043;-64
2022/03/20 08:21:14;;;;;;;34.28;23.35;;;8.10;99.90;;;8.02;56.85;102664.50;5113560;28;20044;-64
2022/03/20 08:23:43;;;;;;;41.97;21.77;;;8.00;99.90;;;8.03;57.29;102666.31;5095292;28;20130;-65
2022/03/20 08:26:12;;;;;;;32.80;23.15;;;7.90;99.90;;;8.03;57.85;102664.56;5113138;28;20083;-65
2022/03/20 08:28:44;;;;;;;34.55;24.02;;;7.90;99.90;;;8.01;57.50;102668.88;5113043;28;20043;-65
2022/03/20 08:31:14;;;;;;;31.83;23.20;;;7.90;99.90;;;8.07;57.69;102666.44;5113375;28;20048;-65
2022/03/20 08:33:43;;;;;;;;;;;7.90;99.90;;;8.16;56.96;102669.44;5113690;28;20384;-65
2022/03/20 08:36:14;;;;;;;32.60;23.05;;;8.00;99.90;;;7.11;56.79;102508.56;5113034;28;20068;-66
2022/03/20 08:38:43;;;;;;;33.45;23.45;;;7.90;99.90;;;7.82;56.57;102650.63;5095308;28;20431;-65
2022/03/20 08:41:12;;;;;;;36.20;23.77;;;7.70;99.90;;;7.42;57.71;102652.69;5113324;28;20047;-64
2022/03/20 08:43:41;;;;;;;31.05;22.40;;;7.30;99.90;;;7.66;57.91;102664.13;5113130;28;20100;-66
2022/03/20 08:46:09;;;;;;;35.78;23.80;;;7.40;99.90;;;7.47;57.43;102664.25;5113348;28;20032;-65
2022/03/20 08:48:39;;;;;;;40.85;24.40;;;7.40;99.90;;;7.11;58.33;102661.16;5113327;28;20040;-65
2022/03/20 08:51:08;;;;;;;36.03;24.55;;;7.10;99.90;;;7.26;58.21;102655.56;5112976;28;20066;-66
2022/03/20 08:53:39;;;;;;;32.53;23.20;;;7.10;99.90;;;6.98;58.34;102658.91;5116743;28;20505;-62
2022/03/20 08:56:07;;;;;;;35.75;23.52;;;6.90;99.90;;;7.23;57.76;102634.41;5099050;28;20059;-62
2022/03/20 08:58:36;;;;;;;33.80;23.33;;;7.00;99.90;;;7.45;57.17;102631.75;5117096;28;20035;-62
2022/03/20 09:01:07;;;;;;;34.45;24.63;;;7.20;99.90;;;7.58;56.23;102649.78;5117112;28;20116;-62
2022/03/20 09:03:36;;;;;;;33.60;23.92;;;7.40;99.90;;;7.60;56.86;102636.66;5117256;28;20112;-68
2022/03/20 09:06:06;;;;;;;36.78;23.80;;;7.40;99.90;;;7.66;56.47;102621.97;5117040;28;20043;-66
2022/03/20 09:08:38;;;;;;;38.05;24.05;;;7.50;99.90;;;7.25;58.54;102628.38;5094993;28;20052;-67
2022/03/20 09:11:07;;;;;;;37.85;25.92;;;7.20;99.90;;;6.76;57.96;102535.28;5096510;28;20044;-67
2022/03/20 09:13:36;;;;;;;37.53;24.15;;;7.20;99.90;;;7.23;57.71;102635.31;5096839;28;20142;-66
2022/03/20 09:18:59;;;;;;;36.45;24.70;;;7.00;99.90;;;7.55;56.81;102625.94;5070530;28;20422;-65
2022/03/20 09:21:32;;;;;;;35.05;24.05;;;7.30;99.90;;;6.87;57.91;102589.19;5096195;28;20469;-65
2022/03/20 09:24:02;;;;;;;35.97;24.63;;;7.00;99.90;;;7.37;57.59;102638.47;5096451;28;20036;-65
2022/03/20 09:26:32;;;;;;;34.92;24.70;;;7.10;99.90;;;7.35;57.42;102645.41;5096396;28;20120;-64
2022/03/20 09:29:00;;;;;;;34.70;22.92;;;7.20;99.90;;;7.05;57.66;102616.19;5096123;28;20040;-67
2022/03/20 09:31:31;;;;;;;34.20;23.80;;;7.00;99.90;;;6.96;57.98;102631.66;5095971;28;20047;-67
2022/03/20 09:34:01;;;;;;;36.25;24.17;;;6.90;99.90;;;6.77;58.42;102630.88;5095757;28;20383;-67
2022/03/20 09:36:31;;;;;;;35.90;25.33;;;6.70;99.90;;;6.89;58.37;102636.63;5095760;28;20133;-67
2022/03/20 09:38:59;;;;;;;35.00;25.38;;;6.70;99.90;;;6.60;59.44;102631.94;5096041;28;20044;-67
2022/03/20 09:41:31;;;;;;;36.47;25.23;;;6.50;99.90;;;6.66;59.32;102627.81;5096024;28;20044;-67
2022/03/20 09:44:05;;;;;;;37.83;25.70;;;6.50;99.90;;;6.70;58.92;102623.56;5095764;28;20119;-67
2022/03/20 09:46:34;;;;;;;39.15;25.35;;;6.60;99.90;;;6.84;59.19;102632.88;5095892;28;20086;-67
2022/03/20 09:49:06;;;;;;;37.97;24.70;;;6.60;99.90;;;6.64;59.51;102632.09;5095588;28;20048;-67
2022/03/20 09:51:36;;;;;;;41.85;27.00;;;6.50;99.90;;;6.78;59.54;102632.66;5095828;28;20040;-67
2022/03/20 09:54:05;;;;;;;38.20;25.65;;;6.50;99.90;;;6.97;59.28;102635.16;5095563;28;20101;-67
2022/03/20 09:56:34;;;;;;;41.55;26.52;;;6.70;99.90;;;6.56;58.46;102651.97;5095818;28;20424;-68
2022/03/20 09:59:02;;;;;;;39.63;27.40;;;6.60;99.90;;;6.20;61.06;102667.09;5095602;28;20432;-67
2022/03/20 10:01:32;;;;;;;44.08;28.63;;;6.20;99.90;;;5.64;63.52;102598.09;5095810;28;20094;-68
2022/03/20 10:04:09;;;;;;;41.30;28.38;;;5.90;99.90;;;5.97;62.30;102652.09;5094760;28;20040;-67
2022/03/20 10:06:41;;;;;;;42.78;29.08;;;5.80;99.90;;;6.13;62.89;102646.66;5095702;28;20447;-67
2022/03/20 10:09:12;;;;;;;43.10;29.95;;;5.90;99.90;;;6.23;62.73;102633.06;5094001;28;20138;-67
2022/03/20 10:11:48;;;;;;;42.40;30.58;;;6.10;99.90;;;6.23;63.81;102596.28;5095256;28;20095;-67
2022/03/20 10:14:19;;;;;;;44.65;30.40;;;6.20;99.90;;;6.06;64.42;102662.97;5095872;28;20047;-67
2022/03/20 10:16:50;;;;;;;48.13;33.10;;;6.00;99.90;;;5.68;67.24;102662.13;5095493;28;20075;-67
2022/03/20 10:19:31;;;;;;;56.97;36.03;;;5.70;99.90;;;5.32;71.18;102645.66;5095397;28;20378;-67
2022/03/20 10:22:05;;;;;;;55.90;36.13;;;5.30;99.90;;;5.09;73.66;102622.72;5095827;28;20044;-67
2022/03/20 10:24:37;;;;;;;57.83;38.13;;;5.10;99.90;;;5.15;74.61;102637.00;5094833;28;20048;-68
2022/03/20 10:27:14;;;;;;;62.53;38.57;;;5.10;99.90;;;4.95;75.65;102631.69;5095558;28;20044;-66
2022/03/20 10:29:53;;;;;;;59.27;39.23;;;4.90;99.90;;;4.70;77.10;102589.44;5096399;28;20453;-68
2022/03/20 10:32:23;;;;;;;56.77;38.83;;;4.80;99.90;;;4.84;77.82;102622.44;5094497;28;20113;-68
2022/03/20 10:34:58;;;;;;;57.05;37.67;;;4.70;99.90;;;4.82;78.49;102611.84;5095806;28;20292;-68
2022/03/20 10:38:01;;;;;;;55.23;38.00;;;4.70;99.90;;;4.69;79.43;102603.34;5095375;28;20062;-66
2022/03/20 10:40:30;;;;;;;56.70;37.67;;;4.60;99.90;;;4.83;80.26;102599.66;5032969;28;20042;-67
2022/03/20 10:43:12;;;;;;;59.77;38.67;;;4.60;99.90;;;4.62;80.51;102552.38;5033123;28;20045;-67
2022/03/20 10:45:56;;;;;;;56.40;38.97;;;4.70;99.90;;;4.83;80.40;102563.84;5068485;28;20101;-67
2022/03/20 10:48:36;;;;;;;57.17;38.93;;;4.70;99.90;;;5.12;80.31;102559.91;5094848;28;20032;-67
2022/03/20 10:51:07;;;;;;;59.00;39.10;;;4.90;99.90;;;5.08;79.97;102526.50;5094841;28;20089;-67
2022/03/20 10:53:54;;;;;;;56.53;37.73;;;5.10;99.90;;;5.41;79.15;102565.63;5094106;28;20109;-67
2022/03/20 10:56:23;;;;;;;58.73;38.50;;;5.20;99.90;;;5.62;77.38;102564.72;5094446;28;20044;-67
2022/03/20 10:58:52;;;;;;;54.47;37.40;;;5.30;99.90;;;5.92;77.92;102577.47;5094668;28;20036;-67